Time;durP1;ratioP1;P1;durP2;ratioP2;P2;SDS_P1;SDS_P2;PMS_P1;PMS_P2;Temp;Humidity;BMP_temperature;BMP_pressure;BME280_temperature;BME280_humidity;BME280_pressure;Samples;Min_cycle;Max_cycle;Signal;HPM_P1;HPM_P2
2023/05/19 00:01:27;;;;;;;9.63;2.90;;;8.90;99.90;;;;;;5006078;28;20053;-70
2023/05/19 00:03:57;;;;;;;6.20;2.85;;;8.90;99.90;;;;;;4985839;28;20038;-70
2023/05/19 00:06:30;;;;;;;11.77;3.53;;;8.90;99.90;;;;;;4996410;28;20048;-70
2023/05/19 00:09:03;;;;;;;8.65;3.10;;;8.90;99.90;;;;;;4999089;28;20300;-70
2023/05/19 00:11:34;;;;;;;7.13;2.78;;;8.90;99.90;;;;;;5000511;28;20290;-71
2023/05/19 00:14:01;;;;;;;11.45;4.45;;;8.80;99.90;;;;;;4981183;28;20038;-72
2023/05/19 00:16:28;;;;;;;5.18;2.83;;;8.90;99.90;;;;;;4992608;28;20399;-72
2023/05/19 00:18:55;;;;;;;8.93;3.42;;;8.90;99.90;;;;;;4993048;28;21257;-75
2023/05/19 00:21:24;;;;;;;12.25;2.97;;;8.80;99.90;;;;;;4993272;28;20058;-74
2023/05/19 00:23:53;;;;;;;7.65;3.03;;;8.80;99.90;;;;;;4996233;28;20046;-74
2023/05/19 00:26:21;;;;;;;7.13;3.13;;;8.80;99.90;;;;;;5000828;28;20068;-70
2023/05/19 00:28:47;;;;;;;8.82;2.60;;;8.80;99.90;;;;;;4999262;28;20257;-70
2023/05/19 00:31:13;;;;;;;8.77;3.13;;;8.80;99.90;;;;;;4987503;28;20050;-70
2023/05/19 00:33:39;;;;;;;7.67;2.67;;;8.80;99.90;;;;;;4998793;28;20057;-69
2023/05/19 00:36:05;;;;;;;11.03;2.90;;;8.90;99.90;;;;;;5000735;28;20257;-70
2023/05/19 00:38:32;;;;;;;6.90;3.38;;;8.80;99.90;;;;;;4988370;28;20042;-76
2023/05/19 00:40:58;;;;;;;10.90;3.53;;;8.70;99.90;;;;;;5032566;22;20045;-69
2023/05/19 00:43:24;;;;;;;6.88;2.78;;;8.80;99.90;;;;;;5025714;28;20037;-69
2023/05/19 00:45:50;;;;;;;6.13;3.00;;;8.70;99.90;;;;;;5011420;28;20112;-69
2023/05/19 00:48:16;;;;;;;8.48;3.83;;;8.80;99.90;;;;;;5020300;28;20046;-69
2023/05/19 00:50:42;;;;;;;9.33;3.07;;;8.80;99.90;;;;;;5019773;28;20095;-69
2023/05/19 00:53:08;;;;;;;8.95;2.90;;;8.70;99.90;;;;;;5011638;28;20339;-69
2023/05/19 00:55:36;;;;;;;7.40;3.13;;;8.70;99.90;;;;;;5018057;28;20048;-69
2023/05/19 00:58:04;;;;;;;12.43;3.70;;;8.70;99.90;;;;;;5019658;28;20041;-68
2023/05/19 01:00:30;;;;;;;9.15;3.15;;;8.70;99.90;;;;;;5023145;28;20045;-69
2023/05/19 01:02:56;;;;;;;7.35;2.70;;;8.70;99.90;;;;;;5015808;28;21804;-69
2023/05/19 01:05:22;;;;;;;5.77;2.73;;;8.70;99.90;;;;;;5008592;28;20049;-70
2023/05/19 01:07:52;;;;;;;8.40;3.40;;;8.70;99.90;;;;;;5011380;28;20286;-69
2023/05/19 01:10:19;;;;;;;11.73;3.20;;;8.70;99.90;;;;;;5024229;28;20787;-69
2023/05/19 01:12:46;;;;;;;7.35;3.25;;;8.70;99.90;;;;;;5020969;28;20041;-69
2023/05/19 01:15:12;;;;;;;8.02;2.95;;;8.70;99.90;;;;;;5020754;28;20112;-69
2023/05/19 01:17:50;;;;;;;10.73;3.30;;;8.70;99.90;;;;;;5025389;28;20037;-69
2023/05/19 01:20:24;;;;;;;10.13;3.00;;;8.70;99.90;;;;;;5028762;28;20072;-69
2023/05/19 01:22:53;;;;;;;11.18;3.30;;;8.70;99.90;;;;;;5019813;28;20076;-69
2023/05/19 01:25:47;;;;;;;8.43;3.28;;;8.60;99.90;;;;;;5013102;28;20129;-69
2023/05/19 01:28:25;;;;;;;7.43;2.83;;;8.60;99.90;;;;;;5027239;28;20048;-68
2023/05/19 01:30:56;;;;;;;8.30;2.65;;;8.60;99.90;;;;;;5018758;28;20056;-68
2023/05/19 01:33:23;;;;;;;12.30;2.88;;;8.60;99.90;;;;;;5018749;28;20096;-68
2023/05/19 01:35:50;;;;;;;9.00;2.88;;;8.60;99.90;;;;;;5025939;28;20038;-68
2023/05/19 01:38:17;;;;;;;8.35;3.08;;;8.50;99.90;;;;;;5022129;28;20046;-68
2023/05/19 01:40:50;;;;;;;8.05;3.05;;;8.50;99.90;;;;;;5020468;28;20270;-68
2023/05/19 01:43:20;;;;;;;7.07;3.67;;;8.50;99.90;;;;;;5015918;28;20130;-68
2023/05/19 01:45:47;;;;;;;7.78;3.15;;;8.50;99.90;;;;;;5019750;28;20049;-68
2023/05/19 01:48:14;;;;;;;9.90;3.17;;;8.50;99.90;;;;;;5018419;28;20530;-68
2023/05/19 01:50:40;;;;;;;;;;;8.60;99.90;;;;;;5012132;28;20091;-68
2023/05/19 01:53:06;;;;;;;7.22;2.60;;;8.50;99.90;;;;;;5016797;28;20012;-68
2023/05/19 01:55:31;;;;;;;9.35;3.03;;;8.40;99.90;;;;;;5019132;28;20176;-68
2023/05/19 01:58:16;;;;;;;8.37;2.77;;;8.50;99.90;;;;;;5019183;28;20137;-68
2023/05/19 02:00:59;;;;;;;4.15;2.40;;;8.40;99.90;;;;;;5018096;28;20041;-68
2023/05/19 02:03:43;;;;;;;7.00;2.97;;;8.50;99.90;;;;;;5037045;28;20470;-67
2023/05/19 02:06:33;;;;;;;7.88;2.97;;;8.50;99.90;;;;;;5018384;28;20045;-68
2023/05/19 02:09:11;;;;;;;5.82;2.47;;;8.40;99.90;;;;;;5023505;28;20363;-68
2023/05/19 02:11:53;;;;;;;5.90;2.70;;;8.40;99.90;;;;;;5015352;28;20585;-68
2023/05/19 02:14:32;;;;;;;6.60;2.85;;;8.40;99.90;;;;;;5016788;28;20117;-68
2023/05/19 02:16:58;;;;;;;6.60;2.78;;;8.40;99.90;;;;;;5017807;28;20107;-68
2023/05/19 02:19:26;;;;;;;11.32;2.92;;;8.40;99.90;;;;;;5024858;28;20392;-68
2023/05/19 02:21:52;;;;;;;9.45;2.85;;;8.40;99.90;;;;;;5021765;28;20029;-68
2023/05/19 02:24:19;;;;;;;8.20;2.50;;;8.40;99.90;;;;;;5024611;28;20044;-68
2023/05/19 02:26:45;;;;;;;5.03;2.55;;;8.40;99.90;;;;;;5013623;28;20053;-68
2023/05/19 02:29:13;;;;;;;5.45;2.08;;;8.40;99.90;;;;;;5020098;28;20037;-68
2023/05/19 02:31:39;;;;;;;7.65;2.50;;;8.40;99.90;;;;;;5019378;28;20037;-68
2023/05/19 02:34:05;;;;;;;7.63;2.37;;;8.40;99.90;;;;;;5017223;28;20433;-68
2023/05/19 02:36:34;;;;;;;8.93;3.30;;;8.40;99.90;;;;;;5013870;28;20061;-68
2023/05/19 02:39:02;;;;;;;9.30;3.05;;;8.40;99.90;;;;;;5021138;28;20660;-68
2023/05/19 02:41:28;;;;;;;7.93;2.60;;;8.40;99.90;;;;;;5017947;28;20706;-68
2023/05/19 02:43:54;;;;;;;9.90;2.72;;;8.40;99.90;;;;;;5010104;28;20050;-68
2023/05/19 02:46:20;;;;;;;4.20;2.03;;;8.40;99.90;;;;;;5015623;28;20052;-68
2023/05/19 02:48:45;;;;;;;7.63;2.63;;;8.40;99.90;;;;;;5020552;28;20475;-68
2023/05/19 02:51:11;;;;;;;5.77;2.17;;;8.40;99.90;;;;;;5020359;28;20033;-68
2023/05/19 02:53:36;;;;;;;11.00;2.47;;;8.40;99.90;;;;;;5015581;28;20286;-68
2023/05/19 02:56:02;;;;;;;6.13;1.97;;;8.40;99.90;;;;;;5018943;28;20037;-68
2023/05/19 02:58:28;;;;;;;11.35;2.40;;;8.40;99.90;;;;;;5011500;28;20477;-68
2023/05/19 03:00:54;;;;;;;12.87;2.50;;;8.30;99.90;;;;;;5007854;28;20037;-67
2023/05/19 03:03:20;;;;;;;;;;;8.30;99.90;;;;;;5018940;28;20057;-68
2023/05/19 03:05:46;;;;;;;8.02;3.00;;;8.30;99.90;;;;;;5016559;28;20243;-68
2023/05/19 03:08:12;;;;;;;11.23;2.85;;;8.30;99.90;;;;;;5018322;28;20037;-68
2023/05/19 03:10:37;;;;;;;6.83;2.80;;;8.30;99.90;;;;;;5022031;28;20400;-68
2023/05/19 03:13:03;;;;;;;7.20;2.20;;;8.30;99.90;;;;;;5015336;28;20111;-68
2023/05/19 03:15:29;;;;;;;4.17;2.20;;;8.30;99.90;;;;;;5016235;28;20117;-67
2023/05/19 03:17:57;;;;;;;10.35;2.00;;;8.30;99.90;;;;;;5017788;28;20827;-68
2023/05/19 03:20:26;;;;;;;8.05;2.63;;;8.30;99.90;;;;;;5021281;28;20050;-68
2023/05/19 03:22:51;;;;;;;13.18;2.75;;;8.30;99.90;;;;;;5020423;28;20042;-68
2023/05/19 03:25:17;;;;;;;9.40;2.70;;;8.30;99.90;;;;;;5013416;28;20091;-68
2023/05/19 03:27:42;;;;;;;7.40;2.37;;;8.30;99.90;;;;;;5011099;28;20121;-68
2023/05/19 03:30:09;;;;;;;6.30;2.57;;;8.30;99.90;;;;;;5016967;28;20053;-68
2023/05/19 03:32:37;;;;;;;5.75;2.80;;;8.20;99.90;;;;;;5018337;28;20073;-69
2023/05/19 03:35:04;;;;;;;8.32;2.10;;;8.30;99.90;;;;;;5019564;28;20153;-67
2023/05/19 03:37:31;;;;;;;6.45;2.13;;;8.20;99.90;;;;;;5018183;28;20390;-68
2023/05/19 03:39:57;;;;;;;6.50;2.45;;;8.20;99.90;;;;;;5017539;28;20075;-67
2023/05/19 03:42:22;;;;;;;4.90;2.15;;;8.20;99.90;;;;;;5011978;28;20179;-68
2023/05/19 03:44:48;;;;;;;9.73;3.97;;;8.10;99.90;;;;;;5021985;28;20161;-68
2023/05/19 03:47:14;;;;;;;5.67;2.43;;;8.20;99.90;;;;;;5022649;28;20180;-69
2023/05/19 03:49:40;;;;;;;8.52;2.40;;;8.20;99.90;;;;;;5021450;28;20081;-68
2023/05/19 03:52:06;;;;;;;6.03;1.97;;;8.20;99.90;;;;;;5021178;28;20037;-68
2023/05/19 03:54:31;;;;;;;8.10;2.63;;;8.20;99.90;;;;;;5021134;28;20037;-67
2023/05/19 03:56:57;;;;;;;11.37;2.77;;;8.20;99.90;;;;;;5018119;28;20048;-68
2023/05/19 03:59:23;;;;;;;7.82;2.50;;;8.20;99.90;;;;;;5011311;28;20401;-68
2023/05/19 04:01:49;;;;;;;5.17;2.50;;;8.20;99.90;;;;;;5017051;28;20069;-68
2023/05/19 04:04:15;;;;;;;10.05;2.50;;;8.20;99.90;;;;;;5016516;28;20050;-68
2023/05/19 04:06:40;;;;;;;5.97;2.93;;;8.20;99.90;;;;;;5021917;28;20614;-67
2023/05/19 04:09:15;;;;;;;9.17;2.00;;;8.30;99.90;;;;;;5019559;28;20048;-68
2023/05/19 04:11:44;;;;;;;8.05;2.33;;;8.30;99.90;;;;;;5011570;28;20349;-68
2023/05/19 04:14:10;;;;;;;8.77;2.40;;;8.30;99.90;;;;;;5014370;28;20045;-68
2023/05/19 04:16:36;;;;;;;5.07;2.57;;;8.30;99.90;;;;;;5003445;28;20037;-68
2023/05/19 04:19:01;;;;;;;6.23;2.47;;;8.30;99.90;;;;;;4994669;28;20212;-68
2023/05/19 04:21:27;;;;;;;5.47;2.23;;;8.40;99.90;;;;;;5005617;28;20815;-68
2023/05/19 04:23:53;;;;;;;7.17;2.20;;;8.40;99.90;;;;;;5016926;28;20121;-68
2023/05/19 04:26:20;;;;;;;11.27;2.40;;;8.40;99.90;;;;;;5000322;28;20080;-68
2023/05/19 04:28:47;;;;;;;8.32;2.65;;;8.50;99.90;;;;;;5018052;28;20506;-68
2023/05/19 04:31:13;;;;;;;11.50;2.60;;;8.50;99.90;;;;;;5015701;28;20119;-68
2023/05/19 04:33:39;;;;;;;9.60;2.50;;;8.50;99.90;;;;;;5020473;28;20138;-68
2023/05/19 04:36:10;;;;;;;9.70;2.78;;;8.60;99.90;;;;;;5019845;28;20065;-67
2023/05/19 04:38:38;;;;;;;11.73;2.97;;;8.60;99.90;;;;;;5017731;28;20466;-68
2023/05/19 04:41:10;;;;;;;10.05;2.88;;;8.70;99.90;;;;;;5017681;28;20045;-68
2023/05/19 04:43:40;;;;;;;11.32;2.80;;;8.70;99.90;;;;;;5014991;28;20072;-68
2023/05/19 04:46:07;;;;;;;8.52;2.45;;;8.70;99.90;;;;;;5017440;28;20049;-68
2023/05/19 04:48:32;;;;;;;7.70;2.65;;;8.80;99.90;;;;;;5019104;28;20107;-68
2023/05/19 04:51:00;;;;;;;7.17;2.77;;;8.80;99.90;;;;;;5021678;28;20159;-68
2023/05/19 04:53:30;;;;;;;12.13;2.72;;;8.90;99.90;;;;;;5021267;28;20052;-68
2023/05/19 04:55:56;;;;;;;12.40;2.92;;;9.00;99.90;;;;;;5019677;28;20255;-68
2023/05/19 04:58:25;;;;;;;;;;;8.90;99.90;;;;;;5023650;28;20034;-68
2023/05/19 05:00:51;;;;;;;8.85;2.33;;;9.00;99.90;;;;;;5020091;28;19928;-68
2023/05/19 05:03:17;;;;;;;11.57;2.40;;;9.10;99.90;;;;;;5021128;28;20533;-68
2023/05/19 05:05:43;;;;;;;7.55;2.63;;;9.10;99.90;;;;;;5018698;28;20052;-68
2023/05/19 05:08:10;;;;;;;10.90;2.95;;;9.20;99.90;;;;;;5022639;28;20501;-68
2023/05/19 05:10:35;;;;;;;;;;;9.20;99.90;;;;;;5021656;28;20064;-67
2023/05/19 05:13:01;;;;;;;9.75;2.97;;;9.30;99.90;;;;;;5022213;28;20354;-67
2023/05/19 05:15:28;;;;;;;9.25;2.80;;;9.30;99.90;;;;;;5022516;28;20447;-68
2023/05/19 05:17:57;;;;;;;6.55;2.58;;;9.40;99.90;;;;;;5000753;28;20184;-68
2023/05/19 05:20:23;;;;;;;8.68;2.60;;;9.40;99.90;;;;;;5022101;28;20120;-68
2023/05/19 05:22:49;;;;;;;5.25;2.75;;;9.50;99.90;;;;;;5016735;28;20200;-68
2023/05/19 05:25:16;;;;;;;8.52;3.35;;;9.60;99.90;;;;;;5019354;28;20464;-68
2023/05/19 05:27:41;;;;;;;9.55;2.65;;;9.60;99.90;;;;;;5013655;28;20145;-68
2023/05/19 05:30:07;;;;;;;7.00;2.83;;;9.70;99.90;;;;;;5018263;28;20602;-68
2023/05/19 05:32:33;;;;;;;7.15;2.70;;;9.70;99.90;;;;;;5018714;28;20045;-69
2023/05/19 05:35:02;;;;;;;7.43;2.72;;;9.80;99.90;;;;;;5020064;28;20525;-69
2023/05/19 05:37:27;;;;;;;6.83;2.80;;;9.90;99.90;;;;;;5024108;28;20206;-68
2023/05/19 05:39:53;;;;;;;6.40;3.50;;;10.00;99.90;;;;;;5022817;28;20153;-69
2023/05/19 05:42:19;;;;;;;7.20;2.60;;;10.00;99.90;;;;;;5000329;28;20065;-71
2023/05/19 05:44:44;;;;;;;7.90;3.05;;;10.10;99.90;;;;;;5019167;28;20033;-68
2023/05/19 05:47:11;;;;;;;11.13;3.30;;;10.20;99.90;;;;;;5016302;28;20044;-69
2023/05/19 05:49:37;;;;;;;5.55;2.75;;;10.20;99.90;;;;;;5023034;28;20521;-71
2023/05/19 05:52:05;;;;;;;6.53;2.63;;;10.30;99.90;;;;;;5017684;28;20045;-70
2023/05/19 05:54:31;;;;;;;11.57;2.78;;;10.40;99.90;;;;;;5019074;28;20048;-68
2023/05/19 05:56:57;;;;;;;12.30;3.25;;;10.40;99.90;;;;;;5013922;28;20041;-68
2023/05/19 05:59:22;;;;;;;6.38;2.88;;;10.50;99.90;;;;;;5019369;28;20416;-67
2023/05/19 06:01:48;;;;;;;8.93;3.33;;;10.60;99.90;;;;;;5003842;28;20077;-69
2023/05/19 06:04:13;;;;;;;12.80;2.80;;;10.70;99.90;;;;;;5020828;28;20045;-68
2023/05/19 06:06:39;;;;;;;8.70;3.70;;;10.70;99.90;;;;;;5018715;28;20041;-68
2023/05/19 06:09:05;;;;;;;8.93;3.17;;;10.80;99.90;;;;;;5016981;28;20443;-72
2023/05/19 06:11:31;;;;;;;7.13;3.43;;;10.90;99.90;;;;;;5014063;28;20455;-71
2023/05/19 06:13:56;;;;;;;10.27;3.30;;;10.90;99.90;;;;;;5018443;28;20045;-68
2023/05/19 06:16:22;;;;;;;4.85;2.38;;;11.00;99.90;;;;;;5002641;28;20033;-68
2023/05/19 06:18:48;;;;;;;5.03;2.22;;;11.00;99.90;;;;;;5021480;28;20037;-69
2023/05/19 06:21:14;;;;;;;5.30;2.70;;;11.10;99.90;;;;;;5021503;28;20423;-68
2023/05/19 06:23:40;;;;;;;7.97;2.60;;;11.10;99.90;;;;;;5018976;28;20111;-69
2023/05/19 06:26:05;;;;;;;6.85;2.80;;;11.20;99.90;;;;;;5010102;28;20306;-69
2023/05/19 06:28:32;;;;;;;11.87;2.97;;;11.20;99.90;;;;;;5014535;28;20486;-68
2023/05/19 06:30:58;;;;;;;;;;;11.30;99.90;;;;;;4995709;28;20063;-68
2023/05/19 06:33:24;;;;;;;11.88;3.17;;;11.30;99.90;;;;;;5019250;28;19922;-69
2023/05/19 06:35:50;;;;;;;7.80;3.10;;;11.40;99.90;;;;;;5019204;28;20047;-68
2023/05/19 06:38:15;;;;;;;6.97;3.55;;;11.50;99.90;;;;;;5015965;28;20136;-68
2023/05/19 06:40:41;;;;;;;11.07;3.73;;;11.50;99.90;;;;;;5035973;22;20052;-84
2023/05/19 06:43:20;;;;;;;11.73;2.72;;;11.60;99.90;;;;;;5128935;27;20532;-72
2023/05/19 06:45:46;;;;;;;7.23;2.00;;;11.70;99.90;;;;;;5103133;27;20052;-71
2023/05/19 06:48:12;;;;;;;7.70;2.80;;;11.70;99.90;;;;;;5098441;27;20652;-70
2023/05/19 06:50:37;;;;;;;7.07;2.40;;;11.80;99.90;;;;;;5113791;27;20032;-70
2023/05/19 06:53:03;;;;;;;9.67;2.40;;;11.90;99.90;;;;;;5113368;27;20130;-70
2023/05/19 06:55:28;;;;;;;7.30;2.40;;;12.00;99.90;;;;;;5093323;28;20280;-70
2023/05/19 06:57:54;;;;;;;7.70;2.80;;;12.10;99.90;;;;;;5091940;27;20047;-71
2023/05/19 07:00:20;;;;;;;8.35;2.80;;;12.10;99.90;;;;;;5099280;28;20100;-71
2023/05/19 07:02:45;;;;;;;7.53;2.30;;;12.20;99.90;;;;;;5094772;27;20522;-70
2023/05/19 07:05:11;;;;;;;8.07;3.30;;;12.30;99.90;;;;;;5098151;28;20311;-71
2023/05/19 07:07:37;;;;;;;9.65;3.20;;;12.30;99.90;;;;;;5074619;27;20124;-70
2023/05/19 07:10:03;;;;;;;6.67;2.47;;;12.40;99.90;;;;;;5087987;28;20074;-70
2023/05/19 07:12:28;;;;;;;7.18;2.72;;;12.50;99.90;;;;;;5115563;27;20139;-71
2023/05/19 07:14:54;;;;;;;10.07;2.93;;;12.60;99.90;;;;;;5094518;28;20049;-71
2023/05/19 07:17:19;;;;;;;6.03;2.90;;;12.60;99.90;;;;;;5099920;27;20062;-70
2023/05/19 07:19:45;;;;;;;7.67;2.63;;;12.70;99.90;;;;;;5108808;27;20074;-70
2023/05/19 07:22:10;;;;;;;7.77;2.70;;;12.80;99.90;;;;;;5115226;27;20147;-72
2023/05/19 07:24:36;;;;;;;6.87;2.33;;;12.80;99.90;;;;;;5110362;27;20100;-71
2023/05/19 07:27:02;;;;;;;6.97;2.83;;;12.90;99.90;;;;;;5101951;27;20307;-71
2023/05/19 07:29:27;;;;;;;6.80;2.33;;;13.00;99.90;;;;;;5090470;27;20048;-71
2023/05/19 07:31:56;;;;;;;5.40;2.27;;;13.10;99.90;;;;;;5101496;28;20359;-71
2023/05/19 07:34:23;;;;;;;8.20;2.65;;;13.10;99.90;;;;;;5093551;28;20043;-72
2023/05/19 07:36:48;;;;;;;;;;;13.20;99.90;;;;;;5080806;27;20050;-70
2023/05/19 07:39:14;;;;;;;9.30;3.95;;;13.20;99.90;;;;;;5117843;27;19915;-71
2023/05/19 07:41:40;;;;;;;6.55;2.22;;;13.20;99.90;;;;;;5092490;27;20035;-71
2023/05/19 07:44:06;;;;;;;7.17;2.90;;;13.20;99.90;;;;;;5084598;28;20632;-71
2023/05/19 07:46:35;;;;;;;;;;;13.20;99.90;;;;;;5111306;27;20047;-71
2023/05/19 07:49:01;;;;;;;9.65;2.75;;;13.30;99.90;;;;;;5112400;27;19963;-73
2023/05/19 07:51:26;;;;;;;9.43;2.72;;;13.30;99.90;;;;;;5082655;28;20073;-74
2023/05/19 07:53:52;;;;;;;5.73;2.27;;;13.30;99.90;;;;;;5094194;27;20385;-71
2023/05/19 07:56:18;;;;;;;3.97;1.73;;;13.40;99.90;;;;;;5091375;28;20044;-72
2023/05/19 07:58:43;;;;;;;4.78;1.98;;;13.50;99.90;;;;;;5105663;27;20040;-78
2023/05/19 08:01:09;;;;;;;8.63;2.42;;;13.60;99.90;;;;;;5084205;28;20077;-74
2023/05/19 08:03:35;;;;;;;6.68;1.73;;;13.60;99.90;;;;;;5081812;28;20051;-73
2023/05/19 08:06:01;;;;;;;4.78;2.03;;;13.70;99.90;;;;;;5081076;28;20036;-72
2023/05/19 08:08:26;;;;;;;4.85;2.22;;;13.80;99.90;;;;;;5080098;28;20067;-73
2023/05/19 08:10:52;;;;;;;4.35;2.10;;;13.90;99.90;;;;;;5078552;28;20515;-73
2023/05/19 08:13:18;;;;;;;6.50;2.37;;;14.00;99.90;;;;;;5089245;27;20082;-74
2023/05/19 08:15:43;;;;;;;5.07;1.95;;;14.00;99.90;;;;;;5068204;28;20130;-71
2023/05/19 08:18:09;;;;;;;3.00;1.47;;;14.10;99.90;;;;;;5096157;28;20471;-71
2023/05/19 08:20:35;;;;;;;5.07;1.87;;;14.30;99.90;;;;;;5080264;28;20669;-71
2023/05/19 08:23:01;;;;;;;9.93;1.77;;;14.40;99.90;;;;;;5095228;27;20032;-71
2023/05/19 08:25:26;;;;;;;6.83;2.13;;;14.50;99.90;;;;;;5095926;28;20040;-72
2023/05/19 08:27:52;;;;;;;4.97;2.10;;;14.60;99.90;;;;;;5066838;28;20443;-72
2023/05/19 08:30:17;;;;;;;6.80;1.97;;;14.70;99.90;;;;;;5079561;28;20949;-71
2023/05/19 08:32:43;;;;;;;6.37;1.60;;;14.80;99.90;;;;;;5097799;28;20671;-72
2023/05/19 08:35:09;;;;;;;5.30;1.85;;;14.90;99.90;;;;;;5101674;28;20355;-72
2023/05/19 08:37:36;;;;;;;5.55;1.95;;;14.90;99.90;;;;;;5099848;28;20040;-73
2023/05/19 08:40:07;;;;;;;3.38;1.70;;;15.00;99.90;;;;;;5079279;28;20079;-74
2023/05/19 08:42:33;;;;;;;5.88;2.10;;;15.10;99.90;;;;;;5085416;27;20130;-75
2023/05/19 08:44:59;;;;;;;4.57;1.70;;;15.10;99.90;;;;;;5084245;28;20127;-77
2023/05/19 08:47:26;;;;;;;;;;;15.20;99.90;;;;;;5088470;27;20054;-73
2023/05/19 08:49:56;;;;;;;4.30;1.85;;;15.30;99.90;;;;;;5082828;28;20379;-72
2023/05/19 08:52:29;;;;;;;7.40;1.95;;;15.40;99.90;;;;;;5104897;27;20524;-76
2023/05/19 08:55:04;;;;;;;6.90;1.80;;;15.50;99.90;;;;;;5088162;28;20036;-73
2023/05/19 08:57:31;;;;;;;5.90;1.98;;;15.60;99.90;;;;;;5088146;28;20092;-75
2023/05/19 08:59:57;;;;;;;5.82;2.08;;;15.70;99.90;;;;;;5081132;28;20291;-73
2023/05/19 09:02:24;;;;;;;3.83;2.05;;;15.80;99.90;;;;;;5088294;28;20467;-75
2023/05/19 09:04:50;;;;;;;5.40;1.98;;;15.90;99.90;;;;;;5084863;28;20054;-72
2023/05/19 09:07:15;;;;;;;5.07;1.63;;;15.90;99.90;;;;;;5101838;28;20488;-74
2023/05/19 09:09:42;;;;;;;3.60;1.83;;;16.00;99.90;;;;;;5079565;28;20473;-77
2023/05/19 09:12:13;;;;;;;4.75;1.92;;;16.10;99.90;;;;;;5085467;28;20304;-72
2023/05/19 09:14:39;;;;;;;7.80;1.98;;;16.20;99.90;;;;;;5088702;28;20055;-72
2023/05/19 09:17:05;;;;;;;8.43;2.10;;;16.20;99.90;;;;;;5101845;28;20043;-71
2023/05/19 09:19:30;;;;;;;;;;;16.30;99.90;;;;;;5101597;28;20039;-75
2023/05/19 09:22:02;;;;;;;5.40;1.90;;;16.40;99.90;;;;;;5075683;28;20412;-72
2023/05/19 09:24:28;;;;;;;4.18;1.92;;;16.50;99.90;;;;;;5087631;28;20047;-71
2023/05/19 09:26:56;;;;;;;5.43;2.08;;;16.50;99.90;;;;;;5091154;28;20040;-70
2023/05/19 09:29:22;;;;;;;4.47;1.58;;;16.60;99.90;;;;;;5080164;28;20055;-70
2023/05/19 09:31:49;;;;;;;7.63;1.80;;;16.70;99.90;;;;;;5083855;28;20035;-70
2023/05/19 09:34:15;;;;;;;4.35;1.80;;;16.80;99.90;;;;;;5073110;28;20052;-71
2023/05/19 09:36:41;;;;;;;5.47;1.83;;;16.80;99.90;;;;;;5094549;28;20092;-71
2023/05/19 09:39:16;;;;;;;3.33;1.83;;;16.90;99.90;;;;;;5072387;28;20051;-70
2023/05/19 09:41:42;;;;;;;4.45;2.17;;;16.80;99.90;;;;;;5077501;27;20489;-70
2023/05/19 09:44:28;;;;;;;5.47;1.63;;;16.90;99.90;;;;;;5080300;28;20125;-74
2023/05/19 09:46:54;;;;;;;4.35;1.70;;;16.90;99.90;;;;;;5066802;28;20059;-70
2023/05/19 09:49:20;;;;;;;7.85;2.00;;;16.90;99.90;;;;;;5093946;27;20545;-70
2023/05/19 09:51:58;;;;;;;4.40;2.05;;;16.90;99.90;;;;;;5083521;28;20051;-70
2023/05/19 09:54:27;;;;;;;3.67;1.60;;;16.90;99.90;;;;;;5072334;28;20071;-70
2023/05/19 09:57:05;;;;;;;4.32;1.52;;;17.00;99.90;;;;;;5099223;28;20923;-70
2023/05/19 09:59:31;;;;;;;9.55;2.15;;;17.20;99.90;;;;;;5082814;28;20047;-70
2023/05/19 10:01:58;;;;;;;8.20;2.05;;;17.30;99.90;;;;;;5078868;28;20111;-70
2023/05/19 10:04:25;;;;;;;7.22;2.08;;;17.30;99.90;;;;;;5097109;27;20043;-70
2023/05/19 10:06:53;;;;;;;7.03;2.00;;;17.40;99.90;;;;;;5081934;28;20043;-70
2023/05/19 10:09:25;;;;;;;4.60;1.98;;;17.60;99.90;;;;;;5105416;28;20039;-71
2023/05/19 10:11:56;;;;;;;6.03;2.00;;;17.70;99.90;;;;;;5099793;28;20421;-70
2023/05/19 10:14:23;;;;;;;6.43;1.95;;;17.70;99.20;;;;;;5100960;27;20040;-70
2023/05/19 10:17:01;;;;;;;8.35;2.40;;;17.80;98.30;;;;;;5082597;28;20465;-70
2023/05/19 10:19:27;;;;;;;7.18;2.45;;;17.90;97.60;;;;;;5075540;28;20682;-70
2023/05/19 10:21:54;;;;;;;6.95;2.15;;;17.90;98.10;;;;;;5091702;28;20131;-71
2023/05/19 10:24:21;;;;;;;4.32;1.63;;;18.00;98.10;;;;;;5081572;28;20074;-70
2023/05/19 10:26:55;;;;;;;6.25;2.05;;;18.10;97.50;;;;;;5097379;28;20176;-70
2023/05/19 10:29:28;;;;;;;4.47;1.92;;;18.10;95.30;;;;;;5099040;28;20065;-70
2023/05/19 10:31:57;;;;;;;8.18;2.00;;;18.10;95.60;;;;;;5072447;28;20796;-70
2023/05/19 10:34:50;;;;;;;4.40;2.25;;;18.10;96.10;;;;;;5079463;28;20064;-70
2023/05/19 10:37:27;;;;;;;4.88;1.80;;;18.10;95.50;;;;;;5078172;28;20043;-71
2023/05/19 10:39:54;;;;;;;3.33;1.70;;;18.10;93.90;;;;;;5081253;28;20067;-71
2023/05/19 10:42:54;;;;;;;4.05;1.50;;;18.20;94.50;;;;;;5102441;28;20040;-72
2023/05/19 10:45:22;;;;;;;6.10;1.73;;;18.20;91.30;;;;;;5102476;28;20557;-71
2023/05/19 10:47:50;;;;;;;5.38;1.92;;;18.20;92.90;;;;;;5083696;28;20262;-70
2023/05/19 10:50:16;;;;;;;5.97;2.00;;;18.30;92.80;;;;;;5083613;28;20405;-70
2023/05/19 10:52:43;;;;;;;4.95;2.08;;;18.40;92.40;;;;;;5081682;28;20035;-72
2023/05/19 10:55:16;;;;;;;3.45;1.65;;;18.40;92.00;;;;;;5083253;28;20107;-71
2023/05/19 10:57:57;;;;;;;7.22;2.00;;;18.50;90.60;;;;;;5082370;28;20043;-71
2023/05/19 11:00:27;;;;;;;5.95;1.58;;;18.60;91.50;;;;;;5078156;28;20039;-71
2023/05/19 11:02:56;;;;;;;6.28;1.98;;;18.70;90.40;;;;;;5078528;28;20047;-71
2023/05/19 11:05:28;;;;;;;6.55;2.10;;;18.90;91.60;;;;;;5083157;28;20311;-70
2023/05/19 11:08:04;;;;;;;4.90;1.83;;;19.00;90.90;;;;;;5101091;28;20073;-71
2023/05/19 11:10:30;;;;;;;4.50;1.77;;;19.10;90.80;;;;;;5086547;28;20039;-71
2023/05/19 11:12:56;;;;;;;2.63;1.30;;;19.10;90.20;;;;;;5107084;28;20110;-72
2023/05/19 11:15:26;;;;;;;;;;;19.10;88.90;;;;;;5061291;28;20067;-71
2023/05/19 11:17:52;;;;;;;4.18;1.35;;;19.10;87.10;;;;;;5078529;28;19920;-71
2023/05/19 11:20:30;;;;;;;4.28;1.40;;;19.10;84.40;;;;;;5079786;28;20154;-70
2023/05/19 11:23:17;;;;;;;6.65;1.60;;;19.10;79.80;;;;;;5102056;28;20989;-72
2023/05/19 11:25:44;;;;;;;4.07;1.37;;;19.10;81.70;;;;;;5084125;28;20082;-71
2023/05/19 11:28:13;;;;;;;3.20;1.40;;;19.10;80.20;;;;;;5086228;28;20797;-70
2023/05/19 11:30:43;;;;;;;6.68;1.30;;;19.20;79.90;;;;;;5088062;27;20351;-71
2023/05/19 11:33:09;;;;;;;3.08;1.35;;;19.30;77.60;;;;;;5066567;28;20055;-71
2023/05/19 11:35:36;;;;;;;9.68;1.60;;;19.40;76.80;;;;;;5103848;27;20036;-71
2023/05/19 11:38:02;;;;;;;9.80;1.60;;;19.40;76.80;;;;;;5105478;28;20421;-71
2023/05/19 11:40:28;;;;;;;;;;;19.50;75.40;;;;;;5098556;28;20072;-70
2023/05/19 11:42:53;;;;;;;5.05;1.40;;;19.50;72.50;;;;;;5100205;27;19935;-71
2023/05/19 11:45:31;;;;;;;4.20;1.60;;;19.50;73.10;;;;;;5098988;28;20110;-71
2023/05/19 11:47:58;;;;;;;4.30;1.60;;;19.60;73.60;;;;;;5100532;28;20035;-71
2023/05/19 11:50:24;;;;;;;4.38;1.30;;;19.60;72.70;;;;;;5102579;28;20127;-71
2023/05/19 11:52:51;;;;;;;3.35;1.42;;;19.70;72.30;;;;;;5106531;28;20149;-70
2023/05/19 11:55:18;;;;;;;3.40;1.40;;;19.90;71.40;;;;;;5097820;27;20072;-70
2023/05/19 11:57:58;;;;;;;3.85;1.08;;;19.90;68.90;;;;;;5081546;28;20071;-70
2023/05/19 12:00:25;;;;;;;4.35;1.13;;;19.90;68.10;;;;;;5104281;27;20047;-71
2023/05/19 12:02:51;;;;;;;8.00;1.95;;;20.00;68.10;;;;;;5099264;28;20102;-70
2023/05/19 12:05:30;;;;;;;5.47;2.10;;;20.20;68.00;;;;;;5101502;27;20063;-71
2023/05/19 12:07:56;;;;;;;10.32;1.67;;;20.30;67.10;;;;;;5092520;28;20101;-70
2023/05/19 12:10:25;;;;;;;2.97;1.52;;;20.50;65.50;;;;;;5103133;28;20125;-71
2023/05/19 12:12:52;;;;;;;6.68;1.60;;;20.60;63.20;;;;;;5080599;28;20035;-70
2023/05/19 12:15:22;;;;;;;5.93;1.75;;;20.60;63.60;;;;;;5104067;28;20040;-70
2023/05/19 12:17:56;;;;;;;5.13;1.40;;;20.60;63.20;;;;;;5102811;28;20570;-71
2023/05/19 12:20:23;;;;;;;7.20;1.60;;;20.70;63.70;;;;;;5099799;27;20110;-70
2023/05/19 12:22:50;;;;;;;4.65;1.77;;;20.70;63.30;;;;;;5101822;28;20035;-70
2023/05/19 12:25:16;;;;;;;5.80;1.70;;;20.80;62.30;;;;;;5098534;28;20194;-70
2023/05/19 12:27:42;;;;;;;4.65;1.38;;;20.80;63.00;;;;;;5083235;28;20043;-71
2023/05/19 12:30:09;;;;;;;2.97;1.40;;;20.70;63.10;;;;;;5103103;28;20035;-71
2023/05/19 12:32:37;;;;;;;4.97;1.77;;;20.80;62.20;;;;;;5102729;27;20043;-70
2023/05/19 12:35:05;;;;;;;4.75;1.75;;;20.80;61.60;;;;;;5105510;28;20191;-70
2023/05/19 12:37:36;;;;;;;4.95;1.73;;;20.80;60.70;;;;;;5104788;28;20488;-70
2023/05/19 12:40:02;;;;;;;4.22;1.75;;;20.70;59.90;;;;;;5098188;22;20116;-68
2023/05/19 12:42:33;;;;;;;4.55;1.52;;;20.60;60.50;;;;;;5052656;28;20049;-69
2023/05/19 12:45:03;;;;;;;3.35;1.33;;;20.70;60.40;;;;;;5062305;28;20072;-68
2023/05/19 12:47:35;;;;;;;8.10;1.75;;;20.70;61.00;;;;;;5061054;28;20036;-69
2023/05/19 12:50:09;;;;;;;3.88;1.42;;;20.70;59.80;;;;;;5058400;28;20076;-68
2023/05/19 12:52:42;;;;;;;4.32;1.50;;;20.80;61.50;;;;;;5055357;28;20562;-68
2023/05/19 12:55:10;;;;;;;3.58;1.40;;;20.90;60.20;;;;;;5047265;28;20044;-68
2023/05/19 12:57:40;;;;;;;5.53;1.75;;;20.90;60.00;;;;;;5064831;28;20518;-68